Time;durP1;ratioP1;P1;durP2;ratioP2;P2;SDS_P1;SDS_P2;PMS_P1;PMS_P2;Temp;Humidity;BMP_temperature;BMP_pressure;BME280_temperature;BME280_humidity;BME280_pressure;Samples;Min_cycle;Max_cycle;Signal;HPM_P1;HPM_P2
2021/08/15 00:01:44;;;;;;;8.50;6.30;;;25.70;99.90;;;;;;5030776;28;20606;-71
2021/08/15 00:04:12;;;;;;;7.03;6.32;;;25.70;99.90;;;;;;5026697;28;20230;-72
2021/08/15 00:06:39;;;;;;;6.57;5.72;;;25.70;99.90;;;;;;5029430;28;20704;-72
2021/08/15 00:09:07;;;;;;;7.05;5.60;;;25.70;99.90;;;;;;5026828;28;20681;-71
2021/08/15 00:11:34;;;;;;;5.72;5.22;;;25.70;99.90;;;;;;5031389;28;20688;-71
2021/08/15 00:14:02;;;;;;;6.43;5.82;;;25.70;99.90;;;;;;5021576;28;20235;-72
2021/08/15 00:16:29;;;;;;;6.35;5.72;;;25.60;99.90;;;;;;5024832;28;20235;-72
2021/08/15 00:18:56;;;;;;;5.63;5.13;;;25.60;99.90;;;;;;5024313;28;20254;-72
2021/08/15 00:21:23;;;;;;;5.18;4.72;;;25.50;99.90;;;;;;5031361;28;20719;-71
2021/08/15 00:23:50;;;;;;;6.93;5.28;;;25.60;99.90;;;;;;5022787;28;20227;-71
2021/08/15 00:26:19;;;;;;;5.55;5.05;;;25.50;99.90;;;;;;5026286;28;20235;-72
2021/08/15 00:28:46;;;;;;;6.63;5.10;;;25.50;99.90;;;;;;5025295;28;20216;-72
2021/08/15 00:31:13;;;;;;;5.68;5.25;;;25.50;99.90;;;;;;5030246;28;20235;-71
2021/08/15 00:33:40;;;;;;;6.30;5.80;;;25.50;99.90;;;;;;5031881;28;20218;-72
2021/08/15 00:36:07;;;;;;;5.65;5.15;;;25.50;99.90;;;;;;5028924;28;20225;-71
2021/08/15 00:38:34;;;;;;;6.20;5.53;;;25.50;99.90;;;;;;5026611;28;20226;-72
2021/08/15 00:41:02;;;;;;;5.97;5.50;;;25.50;99.90;;;;;;5027697;28;20219;-71
2021/08/15 00:43:32;;;;;;;5.00;4.60;;;25.50;99.90;;;;;;5029329;28;20357;-72
2021/08/15 00:45:59;;;;;;;6.30;5.70;;;25.50;99.90;;;;;;5031124;28;20719;-71
2021/08/15 00:48:26;;;;;;;7.10;5.18;;;25.50;99.90;;;;;;5031700;28;20235;-71
2021/08/15 00:50:53;;;;;;;6.13;5.53;;;25.50;99.90;;;;;;5027508;28;20517;-71
2021/08/15 00:53:20;;;;;;;5.20;4.70;;;25.50;99.90;;;;;;5023164;28;20219;-71
2021/08/15 00:55:48;;;;;;;6.00;5.50;;;25.50;99.90;;;;;;5028033;28;20245;-72
2021/08/15 00:58:16;;;;;;;6.55;4.90;;;25.50;99.90;;;;;;5025094;28;20619;-71
2021/08/15 01:00:45;;;;;;;5.78;5.22;;;25.40;99.90;;;;;;5025730;28;20234;-71
2021/08/15 01:03:12;;;;;;;5.50;4.95;;;25.30;99.90;;;;;;5025649;28;20219;-71
2021/08/15 01:05:39;;;;;;;5.80;5.35;;;25.30;99.90;;;;;;5025988;28;20227;-71
2021/08/15 01:08:06;;;;;;;6.18;5.68;;;25.30;99.90;;;;;;5029960;28;20226;-72
2021/08/15 01:10:34;;;;;;;6.05;5.50;;;25.30;99.90;;;;;;5027485;28;20227;-72
2021/08/15 01:13:02;;;;;;;5.82;5.32;;;25.30;99.90;;;;;;5024057;28;20681;-72
2021/08/15 01:15:29;;;;;;;7.05;6.35;;;25.30;99.90;;;;;;5025794;28;20836;-72
2021/08/15 01:17:58;;;;;;;5.50;5.07;;;25.30;99.90;;;;;;5023754;28;20252;-71
2021/08/15 01:20:25;;;;;;;6.28;5.70;;;25.30;99.90;;;;;;5023870;28;20219;-72
2021/08/15 01:22:52;;;;;;;6.05;5.57;;;25.30;99.90;;;;;;5026806;28;20712;-72
2021/08/15 01:25:19;;;;;;;5.55;5.15;;;25.30;99.90;;;;;;5025487;28;20230;-73
2021/08/15 01:27:46;;;;;;;6.65;6.05;;;25.30;99.90;;;;;;5027682;28;20601;-71
2021/08/15 01:30:16;;;;;;;6.60;6.00;;;25.30;99.90;;;;;;5025958;28;20709;-71
2021/08/15 01:32:44;;;;;;;7.15;6.45;;;25.30;99.90;;;;;;5029840;28;20231;-71
2021/08/15 01:35:12;;;;;;;7.00;6.40;;;25.20;99.90;;;;;;5022589;28;20231;-72
2021/08/15 01:37:39;;;;;;;7.15;6.55;;;25.20;99.90;;;;;;5030329;28;20269;-71
2021/08/15 01:40:08;;;;;;;6.85;6.35;;;25.20;99.90;;;;;;5029598;28;20227;-73
2021/08/15 01:42:35;;;;;;;6.70;6.13;;;25.20;99.90;;;;;;5030164;28;20218;-75
2021/08/15 01:45:07;;;;;;;6.38;5.88;;;25.10;99.90;;;;;;5028660;28;20230;-71
2021/08/15 01:47:36;;;;;;;5.85;5.38;;;25.10;99.90;;;;;;5018941;22;20230;-77
2021/08/15 01:50:04;;;;;;;6.38;5.78;;;25.10;99.90;;;;;;5039604;28;20214;-77
2021/08/15 01:52:31;;;;;;;6.95;5.70;;;25.10;99.90;;;;;;5040678;28;20230;-77
2021/08/15 01:54:58;;;;;;;6.40;5.90;;;25.10;99.90;;;;;;5042668;28;20229;-77
2021/08/15 01:57:25;;;;;;;6.90;6.10;;;25.10;99.90;;;;;;5044650;28;20448;-77
2021/08/15 01:59:52;;;;;;;5.75;5.25;;;25.10;99.90;;;;;;5063789;28;20222;-76
2021/08/15 02:02:19;;;;;;;5.78;5.28;;;25.00;99.90;;;;;;5059083;28;20312;-77
2021/08/15 02:04:47;;;;;;;6.57;5.97;;;25.00;99.90;;;;;;5060311;28;20229;-76
2021/08/15 02:07:15;;;;;;;6.32;5.70;;;25.00;99.90;;;;;;5061303;28;20811;-77
2021/08/15 02:09:42;;;;;;;6.15;5.65;;;25.00;99.90;;;;;;5054681;28;20221;-76
2021/08/15 02:12:09;;;;;;;6.40;5.75;;;25.00;99.90;;;;;;5055125;28;20224;-76
2021/08/15 02:14:36;;;;;;;6.85;6.15;;;25.00;99.90;;;;;;5061401;28;20217;-76
2021/08/15 02:17:04;;;;;;;6.80;6.05;;;25.00;99.90;;;;;;5054941;28;20238;-76
2021/08/15 02:19:31;;;;;;;6.90;6.28;;;24.90;99.90;;;;;;5057483;28;20493;-77
2021/08/15 02:21:59;;;;;;;7.00;6.32;;;24.90;99.90;;;;;;5056229;28;20572;-76
2021/08/15 02:24:26;;;;;;;6.18;5.68;;;24.90;99.90;;;;;;5062507;28;20233;-76
2021/08/15 02:26:53;;;;;;;6.75;6.25;;;24.90;99.90;;;;;;5063583;28;20226;-76
2021/08/15 02:29:22;;;;;;;7.20;6.53;;;24.90;99.90;;;;;;5057902;28;20592;-77
2021/08/15 02:31:49;;;;;;;6.78;5.97;;;24.90;99.90;;;;;;5057750;28;20703;-76
2021/08/15 02:34:16;;;;;;;6.05;5.55;;;24.90;99.90;;;;;;5057965;28;20218;-76
2021/08/15 02:36:43;;;;;;;6.50;5.70;;;24.90;99.90;;;;;;5057610;28;20230;-76
2021/08/15 02:39:12;;;;;;;6.13;5.63;;;24.90;99.90;;;;;;5059158;28;20233;-77
2021/08/15 02:41:39;;;;;;;7.65;6.38;;;24.80;99.90;;;;;;5057408;28;20225;-76
2021/08/15 02:44:06;;;;;;;6.43;5.80;;;24.80;99.90;;;;;;5058763;28;20218;-76
2021/08/15 02:46:33;;;;;;;6.63;6.03;;;24.80;99.90;;;;;;5054903;28;20240;-76
2021/08/15 02:49:00;;;;;;;6.78;6.18;;;24.80;99.90;;;;;;5059617;28;20222;-75
2021/08/15 02:51:27;;;;;;;6.82;6.20;;;24.80;99.90;;;;;;5058457;28;20232;-77
2021/08/15 02:53:55;;;;;;;6.15;5.65;;;24.80;99.90;;;;;;5054654;28;20231;-76
2021/08/15 02:56:23;;;;;;;6.65;6.15;;;24.80;99.90;;;;;;5056272;28;21424;-76
2021/08/15 02:58:50;;;;;;;6.68;6.13;;;24.80;99.90;;;;;;5059750;28;20218;-77
2021/08/15 03:01:17;;;;;;;6.45;5.95;;;24.80;99.90;;;;;;5059435;28;20218;-76
2021/08/15 03:03:44;;;;;;;6.80;6.20;;;24.80;99.90;;;;;;5058650;28;20218;-76
2021/08/15 03:06:12;;;;;;;7.10;6.43;;;24.80;99.90;;;;;;5059083;28;20225;-76
2021/08/15 03:08:39;;;;;;;6.55;5.95;;;24.80;99.90;;;;;;5056728;28;20222;-77
2021/08/15 03:11:06;;;;;;;6.82;6.18;;;24.80;99.90;;;;;;5059937;28;20577;-76
2021/08/15 03:13:34;;;;;;;6.35;5.85;;;24.70;99.90;;;;;;5056422;28;20233;-76
2021/08/15 03:16:01;;;;;;;6.97;6.38;;;24.70;99.90;;;;;;5059957;28;20228;-76
2021/08/15 03:18:28;;;;;;;6.93;6.32;;;24.70;99.90;;;;;;5054102;28;20229;-76
2021/08/15 03:20:56;;;;;;;6.20;5.70;;;24.70;99.90;;;;;;5057902;28;20329;-77
2021/08/15 03:23:23;;;;;;;9.20;6.72;;;24.70;99.90;;;;;;5054854;28;20241;-76
2021/08/15 03:25:50;;;;;;;6.75;6.15;;;24.70;99.90;;;;;;5057998;28;20600;-77
2021/08/15 03:28:17;;;;;;;6.40;5.80;;;24.70;99.90;;;;;;5060047;28;20218;-76
2021/08/15 03:30:45;;;;;;;6.03;5.53;;;24.60;99.90;;;;;;5054767;28;20237;-75
2021/08/15 03:33:12;;;;;;;6.88;6.15;;;24.60;99.90;;;;;;5062325;28;20225;-76
2021/08/15 03:35:40;;;;;;;5.97;5.47;;;24.60;99.90;;;;;;5056715;28;20218;-76
2021/08/15 03:38:07;;;;;;;6.97;6.38;;;24.50;99.90;;;;;;5060587;28;20221;-76
2021/08/15 03:40:34;;;;;;;5.85;5.35;;;24.50;99.90;;;;;;5058956;28;20222;-76
2021/08/15 03:43:01;;;;;;;5.97;5.45;;;24.50;99.90;;;;;;5055001;28;20485;-77
2021/08/15 03:45:28;;;;;;;5.80;5.38;;;24.50;99.90;;;;;;5059268;28;20230;-76
2021/08/15 03:47:57;;;;;;;5.38;4.97;;;24.50;99.90;;;;;;5055778;28;20488;-76
2021/08/15 03:50:24;;;;;;;6.55;6.05;;;24.50;99.90;;;;;;5057337;28;21502;-76
2021/08/15 03:52:51;;;;;;;6.57;5.93;;;24.50;99.90;;;;;;5052425;28;20214;-76
2021/08/15 03:55:18;;;;;;;6.53;5.90;;;24.50;99.90;;;;;;5055828;28;20215;-77
2021/08/15 03:57:45;;;;;;;6.57;6.07;;;24.50;99.90;;;;;;5058822;28;20233;-76
2021/08/15 04:00:14;;;;;;;5.63;5.20;;;24.50;99.90;;;;;;5059021;28;22749;-76
2021/08/15 04:02:41;;;;;;;6.50;5.90;;;24.50;99.90;;;;;;5056962;28;20223;-77
2021/08/15 04:05:11;;;;;;;6.43;5.82;;;24.40;99.90;;;;;;5057170;28;20449;-76
2021/08/15 04:07:38;;;;;;;7.15;6.43;;;24.40;99.90;;;;;;5055642;28;20763;-76
2021/08/15 04:10:08;;;;;;;6.22;5.63;;;24.40;99.90;;;;;;5054918;28;20222;-76
2021/08/15 04:12:36;;;;;;;7.32;6.60;;;24.40;99.90;;;;;;5053652;28;20248;-76
2021/08/15 04:15:03;;;;;;;7.03;6.40;;;24.50;99.90;;;;;;5054119;28;20239;-76
2021/08/15 04:17:31;;;;;;;5.50;5.10;;;24.40;99.90;;;;;;5055195;28;20704;-77
2021/08/15 04:19:58;;;;;;;6.28;5.78;;;24.40;99.90;;;;;;5054121;28;20246;-77
2021/08/15 04:22:26;;;;;;;5.63;5.15;;;24.40;99.90;;;;;;5057926;28;20224;-76
2021/08/15 04:24:53;;;;;;;6.10;5.60;;;24.50;99.90;;;;;;5053583;28;20218;-77
2021/08/15 04:27:21;;;;;;;6.80;6.03;;;24.50;99.90;;;;;;5061891;28;20222;-76
2021/08/15 04:29:48;;;;;;;6.57;5.88;;;24.50;99.90;;;;;;5059042;28;20219;-75
2021/08/15 04:32:15;;;;;;;7.07;6.38;;;24.50;99.90;;;;;;5056261;28;20229;-76
2021/08/15 04:34:42;;;;;;;6.28;5.55;;;24.40;99.90;;;;;;5057545;28;20702;-76
2021/08/15 04:37:09;;;;;;;6.13;5.60;;;24.30;99.90;;;;;;5058554;28;20222;-76
2021/08/15 04:39:38;;;;;;;6.60;5.95;;;24.20;99.90;;;;;;5060350;28;20221;-76
2021/08/15 04:42:05;;;;;;;5.90;5.40;;;24.10;99.90;;;;;;5058836;28;20601;-75
2021/08/15 04:44:33;;;;;;;6.00;5.43;;;24.10;99.90;;;;;;5058839;28;20232;-76
2021/08/15 04:47:00;;;;;;;6.13;5.55;;;24.10;99.90;;;;;;5058341;28;20390;-75
2021/08/15 04:49:27;;;;;;;6.70;6.10;;;24.00;99.90;;;;;;5060871;28;20243;-76
2021/08/15 04:51:55;;;;;;;6.35;5.85;;;24.00;99.90;;;;;;5057688;28;20225;-75
2021/08/15 04:54:26;;;;;;;6.15;5.53;;;24.00;99.90;;;;;;5062798;28;20237;-76
2021/08/15 04:56:55;;;;;;;6.15;5.65;;;24.00;99.90;;;;;;5057273;28;20229;-76
2021/08/15 04:59:22;;;;;;;6.07;5.47;;;24.00;99.90;;;;;;5061217;28;20597;-74
2021/08/15 05:01:49;;;;;;;6.28;5.78;;;24.00;99.90;;;;;;5068522;28;20218;-76
2021/08/15 05:04:17;;;;;;;5.68;5.22;;;24.10;99.90;;;;;;5061119;28;20217;-75
2021/08/15 05:06:44;;;;;;;5.95;5.45;;;24.20;99.90;;;;;;5057592;28;20230;-75
2021/08/15 05:09:12;;;;;;;7.07;6.15;;;24.40;99.90;;;;;;5060997;28;20304;-76
2021/08/15 05:11:39;;;;;;;6.88;6.28;;;24.50;99.90;;;;;;5057565;28;20566;-75
2021/08/15 05:14:08;;;;;;;5.97;5.47;;;24.70;99.90;;;;;;5059087;28;20221;-76
2021/08/15 05:16:36;;;;;;;7.32;6.30;;;24.80;99.90;;;;;;5056864;28;20229;-76
2021/08/15 05:19:03;;;;;;;6.72;6.13;;;24.90;99.90;;;;;;5055882;28;20222;-76
2021/08/15 05:21:30;;;;;;;6.60;6.03;;;25.00;99.90;;;;;;5056919;28;20223;-75
2021/08/15 05:23:58;;;;;;;7.03;6.43;;;25.20;99.90;;;;;;5060141;28;20680;-76
2021/08/15 05:26:25;;;;;;;8.32;7.53;;;25.20;99.90;;;;;;5054262;28;20229;-75
2021/08/15 05:28:52;;;;;;;9.85;7.40;;;25.10;99.90;;;;;;5062896;28;20291;-76
2021/08/15 05:31:20;;;;;;;6.85;6.25;;;25.10;99.90;;;;;;5058417;28;20218;-75
2021/08/15 05:33:48;;;;;;;6.72;6.13;;;25.20;99.90;;;;;;5056789;28;20226;-76
2021/08/15 05:36:15;;;;;;;8.70;7.05;;;25.30;99.90;;;;;;5056444;28;20232;-75
2021/08/15 05:38:42;;;;;;;7.20;6.60;;;25.40;99.90;;;;;;5061178;28;20227;-75
2021/08/15 05:41:09;;;;;;;6.85;6.25;;;25.40;99.90;;;;;;5057641;28;20245;-76
2021/08/15 05:43:36;;;;;;;6.82;6.22;;;25.40;99.90;;;;;;5057051;28;20225;-75
2021/08/15 05:46:03;;;;;;;7.57;6.88;;;25.40;99.90;;;;;;5061694;28;20233;-76
2021/08/15 05:48:32;;;;;;;7.47;6.80;;;25.50;99.90;;;;;;5053161;28;20681;-76
2021/08/15 05:51:01;;;;;;;7.78;7.05;;;25.40;99.90;;;;;;5055349;28;20295;-76
2021/08/15 05:53:28;;;;;;;9.23;7.07;;;25.40;99.90;;;;;;5055681;28;20332;-76
2021/08/15 05:55:55;;;;;;;8.38;7.53;;;25.50;99.90;;;;;;5056572;28;20225;-75
2021/08/15 05:58:22;;;;;;;9.45;7.30;;;25.50;99.90;;;;;;5056481;28;20245;-75
2021/08/15 06:00:49;;;;;;;7.60;6.90;;;25.60;99.90;;;;;;5055901;28;22312;-76
2021/08/15 06:03:17;;;;;;;8.50;7.80;;;25.70;99.90;;;;;;5058972;28;20584;-75
2021/08/15 06:05:45;;;;;;;8.68;7.72;;;25.80;99.90;;;;;;5053375;28;20238;-75
2021/08/15 06:08:14;;;;;;;8.52;7.72;;;25.80;99.90;;;;;;5054764;28;20218;-76
2021/08/15 06:10:41;;;;;;;8.68;7.82;;;25.90;99.90;;;;;;5058102;28;20321;-76
2021/08/15 06:13:09;;;;;;;9.93;8.13;;;25.80;99.90;;;;;;5055256;28;20304;-76
2021/08/15 06:15:36;;;;;;;10.23;7.68;;;25.90;99.90;;;;;;5054460;28;20237;-76
2021/08/15 06:18:04;;;;;;;9.65;8.65;;;26.00;99.90;;;;;;5059647;28;20249;-76
2021/08/15 06:20:31;;;;;;;8.55;7.75;;;26.10;99.90;;;;;;5056946;28;20232;-76
2021/08/15 06:22:59;;;;;;;9.48;8.05;;;26.20;99.90;;;;;;5063509;28;20241;-75
2021/08/15 06:25:26;;;;;;;8.18;7.45;;;26.30;99.90;;;;;;5066193;28;20269;-76
2021/08/15 06:27:54;;;;;;;9.13;8.23;;;26.40;99.90;;;;;;5067265;28;20236;-76
2021/08/15 06:30:22;;;;;;;9.38;7.95;;;26.50;99.90;;;;;;5065650;28;20215;-75
2021/08/15 06:32:52;;;;;;;10.10;8.07;;;26.70;99.90;;;;;;5068569;28;20283;-76
2021/08/15 06:35:20;;;;;;;10.27;9.20;;;26.80;99.90;;;;;;5069717;28;20320;-76
2021/08/15 06:37:50;;;;;;;8.90;8.02;;;26.90;99.90;;;;;;5067065;28;20229;-77
2021/08/15 06:40:19;;;;;;;10.10;8.95;;;26.90;99.90;;;;;;5074626;28;20222;-76
2021/08/15 06:42:46;;;;;;;9.50;8.65;;;26.90;99.90;;;;;;5068063;28;20588;-75
2021/08/15 06:45:14;;;;;;;10.85;9.10;;;27.00;99.90;;;;;;5066498;28;20222;-76
2021/08/15 06:47:41;;;;;;;9.23;8.27;;;27.10;99.90;;;;;;5067106;28;20256;-75
2021/08/15 06:50:09;;;;;;;11.02;8.18;;;27.10;99.90;;;;;;5069537;28;20219;-75
2021/08/15 06:52:36;;;;;;;8.70;7.90;;;27.20;99.90;;;;;;5066332;28;20225;-76
2021/08/15 06:55:04;;;;;;;8.75;7.95;;;27.40;99.90;;;;;;5073598;28;20221;-76
2021/08/15 06:57:33;;;;;;;9.25;8.38;;;27.40;99.90;;;;;;5069139;28;20222;-75
2021/08/15 07:00:02;;;;;;;9.60;8.60;;;27.50;99.90;;;;;;5067504;28;20253;-75
2021/08/15 07:02:30;;;;;;;9.63;8.73;;;27.50;99.90;;;;;;5068137;28;20218;-77
2021/08/15 07:04:57;;;;;;;9.68;8.70;;;27.40;99.90;;;;;;5065624;28;20310;-75
2021/08/15 07:07:24;;;;;;;11.50;8.27;;;27.40;99.90;;;;;;5073436;28;20380;-75
2021/08/15 07:09:51;;;;;;;9.60;8.10;;;27.30;99.90;;;;;;5069836;28;20221;-76
2021/08/15 07:12:18;;;;;;;9.38;8.45;;;27.30;99.90;;;;;;5067629;28;20217;-76
2021/08/15 07:14:47;;;;;;;9.90;9.00;;;27.40;99.90;;;;;;5067655;28;20230;-75
2021/08/15 07:17:14;;;;;;;9.00;8.23;;;27.50;99.90;;;;;;5071301;28;20245;-76
2021/08/15 07:19:41;;;;;;;9.27;8.50;;;27.60;99.90;;;;;;5066971;28;20230;-76
2021/08/15 07:22:08;;;;;;;12.23;9.55;;;27.60;99.90;;;;;;5071898;28;20233;-75
2021/08/15 07:24:35;;;;;;;10.68;9.60;;;27.70;99.90;;;;;;5069316;28;20931;-76
2021/08/15 07:27:03;;;;;;;10.65;9.75;;;27.70;99.90;;;;;;5063401;28;20224;-75
2021/08/15 07:29:30;;;;;;;10.35;9.35;;;27.70;99.90;;;;;;5069206;28;20225;-75
2021/08/15 07:31:58;;;;;;;9.82;8.82;;;27.70;99.90;;;;;;5065346;28;20219;-75
2021/08/15 07:34:25;;;;;;;10.32;9.43;;;27.80;99.90;;;;;;5071213;28;20729;-75
2021/08/15 07:36:53;;;;;;;9.90;9.00;;;27.90;99.90;;;;;;5065894;28;20226;-76
2021/08/15 07:39:20;;;;;;;10.32;9.32;;;28.10;99.90;;;;;;5064942;28;20232;-76
2021/08/15 07:41:47;;;;;;;10.40;9.38;;;28.20;99.90;;;;;;5075736;28;20221;-76
2021/08/15 07:44:14;;;;;;;11.55;10.45;;;28.30;99.90;;;;;;5074567;28;20233;-76
2021/08/15 07:46:41;;;;;;;11.50;10.38;;;28.30;99.90;;;;;;5067442;28;20230;-76
2021/08/15 07:49:10;;;;;;;9.55;8.65;;;28.30;99.90;;;;;;5064252;28;20228;-76
2021/08/15 07:51:37;;;;;;;9.93;9.00;;;28.20;99.90;;;;;;5067585;28;20226;-76
2021/08/15 07:54:05;;;;;;;10.93;9.73;;;28.30;99.90;;;;;;5053616;23;20221;-74
2021/08/15 07:56:32;;;;;;;10.68;9.77;;;28.40;99.90;;;;;;5056380;28;20229;-74
2021/08/15 07:59:00;;;;;;;10.05;9.05;;;28.60;99.90;;;;;;5042730;28;20219;-74
2021/08/15 08:01:27;;;;;;;11.13;10.10;;;28.80;99.90;;;;;;5046648;28;20221;-74
2021/08/15 08:03:54;;;;;;;10.15;9.07;;;28.80;99.90;;;;;;5046740;28;20230;-77
2021/08/15 08:06:22;;;;;;;10.93;9.93;;;28.70;99.90;;;;;;5041415;28;20227;-76
2021/08/15 08:08:50;;;;;;;10.02;9.02;;;28.70;99.90;;;;;;5030857;28;20485;-77
2021/08/15 08:11:17;;;;;;;10.25;9.25;;;28.80;99.90;;;;;;5030574;28;20582;-76
2021/08/15 08:13:47;;;;;;;9.68;8.68;;;29.00;99.90;;;;;;5027902;28;20226;-77
2021/08/15 08:16:14;;;;;;;10.63;9.18;;;29.10;99.90;;;;;;5028990;28;20233;-73
2021/08/15 08:18:47;;;;;;;10.77;9.77;;;29.00;99.90;;;;;;5024616;28;20443;-77
2021/08/15 08:21:15;;;;;;;10.65;9.65;;;29.10;99.90;;;;;;5029740;28;20659;-75
2021/08/15 08:23:43;;;;;;;11.23;10.23;;;29.20;99.90;;;;;;5026931;28;20706;-74
2021/08/15 08:26:11;;;;;;;11.55;10.13;;;29.20;99.90;;;;;;5031259;28;20255;-75
2021/08/15 08:28:38;;;;;;;10.52;9.52;;;29.20;99.90;;;;;;5032277;28;21948;-77
2021/08/15 08:31:05;;;;;;;11.27;10.18;;;29.20;99.90;;;;;;5041772;28;20227;-75
2021/08/15 08:33:32;;;;;;;12.73;10.07;;;29.10;99.90;;;;;;5024508;28;20682;-76
2021/08/15 08:35:59;;;;;;;11.32;10.32;;;29.10;99.90;;;;;;5035727;28;20217;-75
2021/08/15 08:38:27;;;;;;;11.18;10.18;;;29.30;99.90;;;;;;5033524;28;20234;-75
2021/08/15 08:40:56;;;;;;;12.55;10.10;;;29.50;99.90;;;;;;5026308;28;20321;-75
2021/08/15 08:43:24;;;;;;;12.20;10.27;;;29.80;99.90;;;;;;5033002;28;20733;-75
2021/08/15 08:45:54;;;;;;;10.98;9.88;;;30.00;99.90;;;;;;5034822;28;20684;-76
2021/08/15 08:48:21;;;;;;;11.82;10.63;;;29.90;99.90;;;;;;5030304;28;20246;-74
2021/08/15 08:50:52;;;;;;;10.70;9.60;;;29.90;99.90;;;;;;5027114;28;20218;-74
2021/08/15 08:53:20;;;;;;;11.95;10.75;;;29.90;99.90;;;;;;5031188;28;20314;-74
2021/08/15 08:55:47;;;;;;;10.38;9.50;;;30.00;99.90;;;;;;5023318;28;20802;-74
2021/08/15 08:58:15;;;;;;;11.25;10.15;;;30.10;99.90;;;;;;5050278;28;20230;-74
2021/08/15 09:00:46;;;;;;;12.85;9.75;;;30.50;99.90;;;;;;5027152;28;20217;-75
2021/08/15 09:03:14;;;;;;;11.15;9.98;;;30.60;99.90;;;;;;5028774;28;20302;-74
2021/08/15 09:05:50;;;;;;;10.20;9.13;;;30.50;99.90;;;;;;5024366;28;20234;-75
2021/08/15 09:08:25;;;;;;;11.63;10.52;;;30.30;99.90;;;;;;5031207;28;20229;-75
2021/08/15 09:10:52;;;;;;;10.93;9.82;;;30.30;99.90;;;;;;5031882;28;20250;-75
2021/08/15 09:13:28;;;;;;;11.05;10.02;;;30.30;99.90;;;;;;5034231;28;20222;-75
2021/08/15 09:15:56;;;;;;;10.38;9.38;;;30.60;99.90;;;;;;5027523;28;20226;-75
2021/08/15 09:18:31;;;;;;;10.77;9.68;;;30.80;99.90;;;;;;5037411;28;20231;-76
2021/08/15 09:20:58;;;;;;;10.80;9.73;;;31.00;99.90;;;;;;5032366;28;20265;-76
2021/08/15 09:23:27;;;;;;;9.63;8.60;;;31.00;99.90;;;;;;5028583;28;20692;-76
2021/08/15 09:26:19;;;;;;;10.35;9.35;;;30.90;99.90;;;;;;5031860;28;20226;-76
2021/08/15 09:28:49;;;;;;;10.63;9.27;;;31.10;99.90;;;;;;5026473;28;20223;-74
2021/08/15 09:31:28;;;;;;;10.38;9.27;;;31.30;99.90;;;;;;5029979;28;20224;-76
2021/08/15 09:33:58;;;;;;;11.07;9.98;;;31.50;99.90;;;;;;5025723;28;20740;-76
2021/08/15 09:36:27;;;;;;;9.88;8.88;;;31.60;99.90;;;;;;5028816;28;20468;-76
2021/08/15 09:38:57;;;;;;;10.65;9.43;;;31.40;99.90;;;;;;5029354;28;20712;-77
2021/08/15 09:41:25;;;;;;;11.50;10.30;;;31.50;99.90;;;;;;5036538;28;20233;-76
2021/08/15 09:44:18;;;;;;;9.95;8.95;;;31.40;99.90;;;;;;5026209;28;20231;-74
2021/08/15 09:47:06;;;;;;;10.27;9.10;;;31.40;99.90;;;;;;5028799;28;20231;-76
2021/08/15 09:49:39;;;;;;;10.07;9.15;;;31.60;99.90;;;;;;5025649;28;20312;-76
2021/08/15 09:52:08;;;;;;;9.43;8.57;;;31.70;99.90;;;;;;5029850;28;20230;-77
2021/08/15 09:54:36;;;;;;;10.43;9.15;;;31.80;99.90;;;;;;5025876;28;20222;-77
2021/08/15 09:57:06;;;;;;;9.80;8.82;;;31.80;99.90;;;;;;5034036;28;20284;-77
2021/08/15 09:59:37;;;;;;;10.30;9.32;;;31.80;99.90;;;;;;5027644;28;20218;-76
2021/08/15 10:02:05;;;;;;;10.57;9.32;;;31.80;99.90;;;;;;5030406;28;20452;-78
2021/08/15 10:04:33;;;;;;;10.35;9.30;;;31.90;99.90;;;;;;5023610;28;20227;-76
2021/08/15 10:07:00;;;;;;;9.27;8.48;;;31.80;99.90;;;;;;5038337;28;20264;-78
2021/08/15 10:09:29;;;;;;;9.00;8.20;;;31.80;99.90;;;;;;5029831;28;20234;-76
2021/08/15 10:11:57;;;;;;;9.70;8.77;;;32.00;99.90;;;;;;5023790;28;20234;-78
2021/08/15 10:14:24;;;;;;;9.75;8.75;;;32.20;99.90;;;;;;5024846;28;20224;-77
2021/08/15 10:16:58;;;;;;;9.88;8.98;;;32.40;99.90;;;;;;5028145;28;20223;-78
2021/08/15 10:19:32;;;;;;;10.07;9.18;;;32.40;99.90;;;;;;5027782;28;20231;-77
2021/08/15 10:22:00;;;;;;;9.15;8.18;;;32.60;99.90;;;;;;5029561;28;20608;-77
2021/08/15 10:24:45;;;;;;;9.73;8.82;;;32.60;99.90;;;;;;5029619;28;20593;-77
2021/08/15 10:27:48;;;;;;;10.52;8.88;;;32.60;99.90;;;;;;5032153;28;20215;-77
2021/08/15 10:30:47;;;;;;;9.02;8.23;;;32.60;99.90;;;;;;5032539;28;20599;-78
2021/08/15 10:33:23;;;;;;;10.38;8.68;;;32.60;99.90;;;;;;5027638;28;20748;-77
2021/08/15 10:36:35;;;;;;;8.50;7.70;;;32.40;99.90;;;;;;5025648;28;21668;-77
2021/08/15 10:39:23;;;;;;;9.32;8.43;;;32.50;99.90;;;;;;5024815;28;20334;-77
2021/08/15 10:41:52;;;;;;;9.40;8.52;;;32.40;99.90;;;;;;5028482;28;20234;-77
2021/08/15 10:44:20;;;;;;;9.63;8.73;;;32.40;99.90;;;;;;5025264;28;20239;-78
2021/08/15 10:47:10;;;;;;;8.63;7.72;;;32.50;99.90;;;;;;5030596;28;20468;-78
2021/08/15 10:49:53;;;;;;;9.25;8.45;;;32.60;99.90;;;;;;5026170;28;20641;-78
2021/08/15 10:52:37;;;;;;;9.95;7.65;;;32.90;99.90;;;;;;5029393;28;20226;-79
2021/08/15 10:55:17;;;;;;;8.18;7.45;;;33.00;99.90;;;;;;5024550;28;20338;-77
2021/08/15 10:57:47;;;;;;;8.48;7.68;;;33.10;99.90;;;;;;5036122;28;20352;-77
2021/08/15 11:00:44;;;;;;;8.15;7.45;;;33.00;99.90;;;;;;5031886;28;20237;-78
2021/08/15 11:03:31;;;;;;;8.30;7.55;;;33.00;99.90;;;;;;5028733;28;20227;-78
2021/08/15 11:06:00;;;;;;;8.88;8.07;;;33.10;99.90;;;;;;5033254;28;20227;-78
2021/08/15 11:08:54;;;;;;;10.00;8.55;;;33.10;99.90;;;;;;5030045;28;20305;-78
2021/08/15 11:11:26;;;;;;;8.88;7.97;;;33.10;99.90;;;;;;5031379;28;20280;-77
2021/08/15 11:14:26;;;;;;;8.63;7.72;;;32.90;99.90;;;;;;5029881;28;20218;-78
2021/08/15 11:16:58;;;;;;;10.02;8.40;;;33.00;99.90;;;;;;5025087;28;20222;-79
2021/08/15 11:19:30;;;;;;;9.35;7.35;;;33.10;99.90;;;;;;5031424;28;20222;-77
2021/08/15 11:22:25;;;;;;;10.45;7.70;;;33.10;99.90;;;;;;5027520;28;20230;-78
2021/08/15 11:24:55;;;;;;;7.88;7.10;;;33.00;99.90;;;;;;5030947;28;20215;-79
2021/08/15 11:27:30;;;;;;;10.25;8.95;;;33.00;99.90;;;;;;5029067;28;20976;-77
2021/08/15 11:29:59;;;;;;;9.05;8.18;;;33.00;99.90;;;;;;5025653;28;20234;-78
2021/08/15 11:32:28;;;;;;;8.68;7.85;;;32.80;99.90;;;;;;5029721;28;20238;-78
2021/08/15 11:34:57;;;;;;;10.82;8.15;;;32.90;99.90;;;;;;5030552;28;20222;-77
2021/08/15 11:37:27;;;;;;;9.55;8.50;;;33.00;99.90;;;;;;5027639;28;20237;-76
2021/08/15 11:39:55;;;;;;;11.65;7.65;;;33.00;99.90;;;;;;5030200;28;20463;-78
2021/08/15 11:42:24;;;;;;;9.95;7.53;;;32.90;99.90;;;;;;5030536;28;20234;-78
2021/08/15 11:44:56;;;;;;;10.10;8.40;;;32.90;99.90;;;;;;5039705;28;20229;-78
2021/08/15 11:47:25;;;;;;;9.38;8.07;;;32.80;99.90;;;;;;5037017;28;20215;-78
2021/08/15 11:49:54;;;;;;;8.63;7.82;;;32.80;99.90;;;;;;5034743;28;20215;-78
2021/08/15 11:52:22;;;;;;;8.40;7.60;;;33.00;99.90;;;;;;5039106;28;20218;-76
2021/08/15 11:54:53;;;;;;;9.93;8.25;;;33.40;99.90;;;;;;5040474;28;20229;-78
2021/08/15 11:57:21;;;;;;;9.05;8.18;;;33.50;99.90;;;;;;5036161;28;20226;-79
2021/08/15 12:00:00;;;;;;;10.10;8.95;;;33.50;99.90;;;;;;5036900;28;20219;-78
2021/08/15 12:02:27;;;;;;;11.52;9.45;;;33.30;99.90;;;;;;5040681;28;20218;-77
2021/08/15 12:04:54;;;;;;;8.75;7.95;;;33.30;99.90;;;;;;5043656;28;20214;-78
2021/08/15 12:07:24;;;;;;;9.13;7.40;;;33.20;99.90;;;;;;5039305;28;20589;-76
2021/08/15 12:10:26;;;;;;;9.27;7.85;;;33.40;99.90;;;;;;5038858;28;20223;-78
2021/08/15 12:13:14;;;;;;;9.50;7.85;;;33.50;99.90;;;;;;5011633;28;20327;-78
2021/08/15 12:15:43;;;;;;;9.73;7.57;;;33.50;99.90;;;;;;5036904;28;20792;-78
2021/08/15 12:18:26;;;;;;;8.75;6.90;;;33.50;99.90;;;;;;5039956;28;20226;-79
2021/08/15 12:20:53;;;;;;;7.20;6.60;;;33.80;99.90;;;;;;5035096;28;20436;-77
2021/08/15 12:23:21;;;;;;;8.18;6.82;;;33.90;99.90;;;;;;5038064;28;20291;-78
2021/08/15 12:26:02;;;;;;;9.57;7.70;;;33.90;99.90;;;;;;5038724;28;20219;-78
2021/08/15 12:28:30;;;;;;;8.40;6.68;;;33.80;99.90;;;;;;5030409;28;20215;-78
2021/08/15 12:30:57;;;;;;;7.40;6.70;;;33.60;99.90;;;;;;5043619;28;20239;-78
2021/08/15 12:33:25;;;;;;;6.80;6.20;;;33.60;99.90;;;;;;5039127;28;20276;-76
2021/08/15 12:35:53;;;;;;;7.13;6.38;;;33.80;99.90;;;;;;5050552;28;20645;-79
2021/08/15 12:38:30;;;;;;;7.60;6.80;;;34.10;99.90;;;;;;5033157;28;20219;-77
2021/08/15 12:41:25;;;;;;;6.50;5.97;;;34.30;99.90;;;;;;5040529;28;20665;-77
2021/08/15 12:44:09;;;;;;;9.70;6.72;;;34.40;99.90;;;;;;5041731;28;20219;-78
2021/08/15 12:46:36;;;;;;;7.57;6.53;;;34.40;99.90;;;;;;5035917;28;20276;-78
2021/08/15 12:49:21;;;;;;;7.00;6.20;;;34.40;99.90;;;;;;5042203;28;20219;-79
2021/08/15 12:51:49;;;;;;;9.23;5.93;;;34.70;99.90;;;;;;5034301;28;20211;-77
2021/08/15 12:54:17;;;;;;;9.90;6.07;;;35.00;99.90;;;;;;5040728;28;20214;-78
2021/08/15 12:56:45;;;;;;;7.85;5.43;;;35.00;99.90;;;;;;5043015;28;20234;-77